createdAt,value
2019-01-29T00:01:56.674Z,6.07
2019-01-29T00:04:27.221Z,5.90
2019-01-29T00:06:57.190Z,6.10
2019-01-29T00:09:26.930Z,5.67
2019-01-29T00:11:58.259Z,4.97
2019-01-29T00:14:30.659Z,5.47
2019-01-29T00:17:00.605Z,5.10
2019-01-29T00:19:30.517Z,4.93
2019-01-29T00:22:00.405Z,5.10
2019-01-29T00:24:33.342Z,4.67
2019-01-29T00:27:04.005Z,4.80
2019-01-29T00:29:34.917Z,4.87
2019-01-29T00:32:06.287Z,4.70
2019-01-29T00:34:39.913Z,4.30
2019-01-29T00:37:09.754Z,5.00
2019-01-29T00:39:40.272Z,4.83
2019-01-29T00:42:10.097Z,4.40
2019-01-29T00:44:40.349Z,4.53
2019-01-29T00:47:10.170Z,4.57
2019-01-29T00:49:41.257Z,4.93
2019-01-29T00:52:11.138Z,4.50
2019-01-29T00:54:41.032Z,5.40
2019-01-29T00:57:10.840Z,4.63
2019-01-29T00:59:45.827Z,4.63
2019-01-29T01:02:16.377Z,4.30
2019-01-29T01:04:49.032Z,4.97
2019-01-29T01:07:18.795Z,4.60
2019-01-29T01:09:57.030Z,4.43
2019-01-29T01:12:23.059Z,4.43
2019-01-29T01:14:54.693Z,5.37
2019-01-29T01:17:24.385Z,3.60
2019-01-29T01:19:54.190Z,3.90
2019-01-29T01:22:26.988Z,3.57
2019-01-29T01:24:56.831Z,4.20
2019-01-29T01:27:31.157Z,4.90
2019-01-29T01:30:04.060Z,4.63
2019-01-29T01:32:33.854Z,4.33
2019-01-29T01:35:03.964Z,4.60
2019-01-29T01:37:34.114Z,3.60
2019-01-29T01:40:05.337Z,4.53
2019-01-29T01:42:35.397Z,4.13
2019-01-29T01:45:07.173Z,3.57
2019-01-29T01:47:37.406Z,4.27
2019-01-29T01:50:08.951Z,3.83
2019-01-29T01:52:38.922Z,4.10
2019-01-29T01:55:11.392Z,4.03
2019-01-29T01:57:41.230Z,3.70
2019-01-29T02:00:29.286Z,3.80
2019-01-29T02:02:59.104Z,3.33
2019-01-29T02:05:28.871Z,3.80
2019-01-29T02:07:59.040Z,4.10
2019-01-29T02:10:30.454Z,4.10
2019-01-29T02:13:00.410Z,3.50
2019-01-29T02:15:30.542Z,3.70
2019-01-29T02:18:00.605Z,3.90
2019-01-29T02:20:30.713Z,3.50
2019-01-29T02:23:07.784Z,3.40
2019-01-29T02:25:33.929Z,3.37
2019-01-29T02:28:04.035Z,3.67
2019-01-29T02:30:37.008Z,3.17
2019-01-29T02:33:06.930Z,3.50
2019-01-29T02:35:36.895Z,3.47
2019-01-29T02:38:06.847Z,3.30
2019-01-29T02:40:38.626Z,3.47
2019-01-29T02:43:08.913Z,3.63
2019-01-29T02:45:38.924Z,3.10
2019-01-29T02:48:09.369Z,3.20
2019-01-29T02:50:39.521Z,2.90
2019-01-29T02:53:17.825Z,2.87
2019-01-29T02:55:41.037Z,3.50
2019-01-29T02:58:11.374Z,2.73
2019-01-29T03:00:41.874Z,2.80
2019-01-29T03:03:11.674Z,2.90
2019-01-29T03:05:44.667Z,3.00
2019-01-29T03:08:14.657Z,3.30
2019-01-29T03:10:44.611Z,3.10
2019-01-29T03:13:14.457Z,3.13
2019-01-29T03:15:46.941Z,3.57
2019-01-29T03:18:16.917Z,3.17
2019-01-29T03:20:46.810Z,3.07
2019-01-29T03:23:17.016Z,3.20
2019-01-29T03:25:47.112Z,3.40
2019-01-29T03:28:17.510Z,3.07
2019-01-29T03:30:47.603Z,3.00
2019-01-29T03:33:17.535Z,2.53
2019-01-29T03:35:47.709Z,3.10
2019-01-29T03:38:20.172Z,2.70
2019-01-29T03:40:50.294Z,2.80
2019-01-29T03:43:19.969Z,2.50
2019-01-29T03:45:49.941Z,2.50
2019-01-29T03:48:19.873Z,3.10
2019-01-29T03:50:49.799Z,2.97
2019-01-29T03:53:19.625Z,2.87
2019-01-29T03:55:49.378Z,3.13
2019-01-29T03:58:19.235Z,2.40
2019-01-29T04:00:49.149Z,2.93
2019-01-29T04:03:21.849Z,2.97
2019-01-29T04:05:51.718Z,2.60
2019-01-29T04:08:23.183Z,2.50
2019-01-29T04:10:53.174Z,2.50
2019-01-29T04:13:24.251Z,2.60
2019-01-29T04:15:59.049Z,2.50
2019-01-29T04:18:28.936Z,2.77
2019-01-29T04:20:59.219Z,2.73
2019-01-29T04:23:32.265Z,2.60
2019-01-29T04:26:02.230Z,3.43
2019-01-29T04:28:31.990Z,2.80
2019-01-29T04:31:01.897Z,2.50
2019-01-29T04:33:31.933Z,2.63
2019-01-29T04:36:01.793Z,2.87
2019-01-29T04:38:31.853Z,2.57
2019-01-29T04:41:03.099Z,2.90
2019-01-29T04:43:33.392Z,2.77
2019-01-29T04:46:03.318Z,2.87
2019-01-29T04:48:33.304Z,2.70
2019-01-29T04:51:03.293Z,2.40
2019-01-29T04:53:33.048Z,2.67
2019-01-29T04:56:02.844Z,2.10
2019-01-29T04:58:32.545Z,2.40
2019-01-29T05:01:03.253Z,2.70
2019-01-29T05:03:35.486Z,2.43
2019-01-29T05:06:06.653Z,2.67
2019-01-29T05:08:36.637Z,2.87
2019-01-29T05:11:06.481Z,2.87
2019-01-29T05:13:39.305Z,3.43
2019-01-29T05:16:09.800Z,3.90
2019-01-29T05:18:39.942Z,3.20
2019-01-29T05:21:09.892Z,3.13
2019-01-29T05:23:39.679Z,2.97
2019-01-29T05:26:09.391Z,2.70
2019-01-29T05:28:39.206Z,2.60
2019-01-29T05:31:09.432Z,3.00
2019-01-29T05:33:41.630Z,4.43
2019-01-29T05:36:12.418Z,3.60
2019-01-29T05:38:42.102Z,4.43
2019-01-29T05:41:11.886Z,3.30
2019-01-29T05:43:41.550Z,3.90
2019-01-29T05:46:11.570Z,4.43
2019-01-29T05:48:41.565Z,5.93
2019-01-29T05:51:11.692Z,4.10
2019-01-29T05:53:41.448Z,3.37
2019-01-29T05:56:11.583Z,3.10
2019-01-29T05:58:41.257Z,2.87
2019-01-29T06:01:11.030Z,3.30
2019-01-29T06:03:41.002Z,3.33
2019-01-29T06:06:10.911Z,3.00
2019-01-29T06:08:40.777Z,3.40
2019-01-29T06:11:10.525Z,5.17
2019-01-29T06:13:40.430Z,4.47
2019-01-29T06:16:10.146Z,3.57
2019-01-29T06:18:39.965Z,4.30
2019-01-29T06:21:09.643Z,4.60
2019-01-29T06:23:39.334Z,4.67
2019-01-29T06:26:09.455Z,5.60
2019-01-29T06:28:39.131Z,5.73
2019-01-29T06:31:09.070Z,4.70
2019-01-29T06:33:39.389Z,4.03
2019-01-29T06:36:09.429Z,3.53
2019-01-29T06:38:40.312Z,4.33
2019-01-29T06:41:11.491Z,3.23
2019-01-29T06:43:42.517Z,3.50
2019-01-29T06:46:13.570Z,4.00
2019-01-29T06:48:44.455Z,4.90
2019-01-29T06:51:15.244Z,4.60
2019-01-29T06:53:46.657Z,6.10
2019-01-29T06:56:17.309Z,6.03
2019-01-29T06:58:48.139Z,4.73
2019-01-29T07:01:19.595Z,4.83
2019-01-29T07:03:50.404Z,5.00
2019-01-29T07:06:21.032Z,5.67
2019-01-29T07:08:51.563Z,6.27
2019-01-29T07:11:21.759Z,6.50
2019-01-29T07:13:51.429Z,6.37
2019-01-29T07:16:34.778Z,6.33
2019-01-29T07:19:13.479Z,4.73
2019-01-29T07:21:43.473Z,6.77
2019-01-29T07:24:13.331Z,5.93
2019-01-29T07:26:43.551Z,4.70
2019-01-29T07:29:13.847Z,4.40
2019-01-29T07:31:43.565Z,4.80
2019-01-29T07:34:13.473Z,5.57
2019-01-29T07:36:43.243Z,6.27
2019-01-29T07:39:13.196Z,8.97
2019-01-29T07:41:43.350Z,8.87
2019-01-29T07:44:13.126Z,7.70
2019-01-29T07:46:43.157Z,5.20
2019-01-29T07:49:14.125Z,6.77
2019-01-29T07:51:43.971Z,5.67
2019-01-29T07:54:13.919Z,7.40
2019-01-29T07:56:43.608Z,8.53
2019-01-29T07:59:13.399Z,9.10
2019-01-29T08:01:44.015Z,5.30
2019-01-29T08:04:14.868Z,4.27
2019-01-29T08:06:44.700Z,3.73
2019-01-29T08:09:14.504Z,4.00
2019-01-29T08:11:44.458Z,6.87
2019-01-29T08:14:14.526Z,6.10
2019-01-29T08:16:44.433Z,5.70
2019-01-29T08:19:14.494Z,6.50
2019-01-29T08:21:44.245Z,5.60
2019-01-29T08:24:14.720Z,7.30
2019-01-29T08:26:44.578Z,4.60
2019-01-29T08:29:14.275Z,4.93
2019-01-29T08:31:44.218Z,4.27
2019-01-29T08:34:13.995Z,3.90
2019-01-29T08:36:43.997Z,3.90
2019-01-29T08:39:13.768Z,3.93
2019-01-29T08:41:43.571Z,5.57
2019-01-29T08:44:13.729Z,4.50
2019-01-29T08:46:43.552Z,4.17
2019-01-29T08:49:13.328Z,4.07
2019-01-29T08:51:43.254Z,3.80
2019-01-29T08:54:13.209Z,4.87
2019-01-29T08:56:43.589Z,4.17
2019-01-29T08:59:13.359Z,4.73
2019-01-29T09:01:43.590Z,4.23
2019-01-29T09:04:13.355Z,4.20
2019-01-29T09:06:43.332Z,4.60
2019-01-29T09:09:13.357Z,4.63
2019-01-29T09:11:43.192Z,3.53
2019-01-29T09:14:12.881Z,3.50
2019-01-29T09:16:42.691Z,4.00
2019-01-29T09:19:12.524Z,3.80
2019-01-29T09:21:42.266Z,4.03
2019-01-29T09:24:12.068Z,3.30
2019-01-29T09:26:42.153Z,3.80
2019-01-29T09:29:17.627Z,4.10
2019-01-29T09:31:43.681Z,4.47
2019-01-29T09:34:13.383Z,4.17
2019-01-29T09:36:44.728Z,3.80
2019-01-29T09:39:14.785Z,10.70
2019-01-29T09:41:44.548Z,5.33
2019-01-29T09:44:14.575Z,3.80
2019-01-29T09:46:44.493Z,3.70
2019-01-29T09:49:14.693Z,3.40
2019-01-29T09:51:44.391Z,4.00
2019-01-29T09:54:14.224Z,3.30
2019-01-29T09:56:44.247Z,3.77
2019-01-29T09:59:14.190Z,3.50
2019-01-29T10:01:44.206Z,3.63
2019-01-29T10:04:14.171Z,3.53
2019-01-29T10:06:44.070Z,3.50
2019-01-29T10:09:13.958Z,3.80
2019-01-29T10:11:43.714Z,3.73
2019-01-29T10:14:13.714Z,3.40
2019-01-29T10:16:43.514Z,3.93
2019-01-29T10:19:13.490Z,3.60
2019-01-29T10:21:43.182Z,3.87
2019-01-29T10:24:12.903Z,4.47
2019-01-29T10:26:42.836Z,3.90
2019-01-29T10:29:13.402Z,4.03
2019-01-29T10:31:43.910Z,5.97
2019-01-29T10:34:13.710Z,3.30
2019-01-29T10:36:43.600Z,3.70
2019-01-29T10:39:13.514Z,3.23
2019-01-29T10:41:43.458Z,3.50
2019-01-29T10:44:13.185Z,3.10
2019-01-29T10:46:43.178Z,3.67
2019-01-29T10:49:15.474Z,3.27
2019-01-29T10:51:45.147Z,2.97
2019-01-29T10:54:14.990Z,3.33
2019-01-29T10:56:44.815Z,3.60
2019-01-29T10:59:14.979Z,2.27
2019-01-29T11:01:44.653Z,2.50
2019-01-29T11:04:14.470Z,2.90
2019-01-29T11:06:44.222Z,3.00
2019-01-29T11:09:14.209Z,3.10
2019-01-29T11:11:44.038Z,3.13
2019-01-29T11:14:13.901Z,3.97
2019-01-29T11:16:43.825Z,2.90
2019-01-29T11:19:13.763Z,3.20
2019-01-29T11:21:43.957Z,2.67
2019-01-29T11:24:14.002Z,2.90
2019-01-29T11:26:43.726Z,2.93
2019-01-29T11:29:13.645Z,2.37
2019-01-29T11:31:43.414Z,3.10
2019-01-29T11:34:13.173Z,2.83
2019-01-29T11:36:43.217Z,3.03
2019-01-29T11:39:13.451Z,2.63
2019-01-29T11:41:43.341Z,3.10
2019-01-29T11:44:13.154Z,3.20
2019-01-29T11:46:43.108Z,2.97
2019-01-29T11:49:13.170Z,3.43
2019-01-29T11:51:42.938Z,3.10
2019-01-29T11:54:12.819Z,2.93
2019-01-29T11:56:42.702Z,2.70
2019-01-29T11:59:12.952Z,2.60
2019-01-29T12:01:42.789Z,2.30
2019-01-29T12:04:12.535Z,2.83
2019-01-29T12:06:42.392Z,2.70
2019-01-29T12:09:12.305Z,2.73
2019-01-29T12:11:42.121Z,3.40
2019-01-29T12:14:11.853Z,4.10
2019-01-29T12:16:41.529Z,3.27
2019-01-29T12:19:11.318Z,3.30
2019-01-29T12:21:41.237Z,3.90
2019-01-29T12:24:11.305Z,2.97
2019-01-29T12:26:41.261Z,3.57
2019-01-29T12:29:11.110Z,2.50
2019-01-29T12:31:41.106Z,2.70
2019-01-29T12:34:10.795Z,2.73
2019-01-29T12:36:40.457Z,3.17
2019-01-29T12:39:10.390Z,5.80
2019-01-29T12:41:40.269Z,2.77
2019-01-29T12:44:10.036Z,2.33
2019-01-29T12:46:39.897Z,2.10
2019-01-29T12:49:10.034Z,2.43
2019-01-29T12:52:02.125Z,2.33
2019-01-29T12:54:31.980Z,3.20
2019-01-29T12:57:02.066Z,2.40
2019-01-29T12:59:31.966Z,2.53
2019-01-29T13:02:01.639Z,3.00
2019-01-29T13:04:31.670Z,3.13
2019-01-29T13:07:01.439Z,2.10
2019-01-29T13:09:31.410Z,3.40
2019-01-29T13:12:01.361Z,2.93
2019-01-29T13:14:31.098Z,2.43
2019-01-29T13:17:01.115Z,2.77
2019-01-29T13:19:31.067Z,3.07
2019-01-29T13:22:00.743Z,2.13
2019-01-29T13:24:30.653Z,2.00
2019-01-29T13:27:00.416Z,1.70
2019-01-29T13:29:30.091Z,1.87
2019-01-29T13:31:59.778Z,1.53
2019-01-29T13:34:29.698Z,2.03
2019-01-29T13:36:59.797Z,1.70
2019-01-29T13:39:29.585Z,1.60
2019-01-29T13:41:59.513Z,1.30
2019-01-29T13:44:29.279Z,1.70
2019-01-29T13:46:59.107Z,1.47
2019-01-29T13:49:28.912Z,1.33
2019-01-29T13:51:58.631Z,1.77
2019-01-29T13:54:28.944Z,1.33
2019-01-29T13:56:58.667Z,1.40
2019-01-29T13:59:28.681Z,1.40
2019-01-29T14:01:58.534Z,1.13
2019-01-29T14:04:28.305Z,1.47
2019-01-29T14:06:58.061Z,1.37
2019-01-29T14:09:27.964Z,4.23
2019-01-29T14:11:57.726Z,3.43
2019-01-29T14:14:29.175Z,3.23
2019-01-29T14:16:58.866Z,3.40
2019-01-29T14:19:28.720Z,3.60
2019-01-29T14:21:58.588Z,1.40
2019-01-29T14:24:28.370Z,1.57
2019-01-29T14:26:58.163Z,1.53
2019-01-29T14:29:27.838Z,2.80
2019-01-29T14:31:57.535Z,2.90
2019-01-29T14:34:27.230Z,1.60
2019-01-29T14:36:57.324Z,1.70
2019-01-29T14:39:30.667Z,1.83
2019-01-29T14:42:00.761Z,1.60
2019-01-29T14:44:36.621Z,1.30
2019-01-29T14:47:06.498Z,1.50
2019-01-29T14:49:36.184Z,1.60
2019-01-29T14:52:06.117Z,1.37
2019-01-29T14:54:36.134Z,1.60
2019-01-29T14:57:05.985Z,1.40
2019-01-29T14:59:36.648Z,1.80
2019-01-29T15:02:06.635Z,1.90
2019-01-29T15:04:36.339Z,18.07
2019-01-29T15:07:06.206Z,11.60
2019-01-29T15:09:36.464Z,6.13
2019-01-29T15:12:06.252Z,3.53
2019-01-29T15:14:36.167Z,3.23
2019-01-29T15:17:44.047Z,5.00
2019-01-29T15:20:14.053Z,3.90
2019-01-29T15:22:43.910Z,4.00
2019-01-29T15:25:13.861Z,2.43
2019-01-29T15:27:43.643Z,1.93
2019-01-29T15:30:20.158Z,1.47
2019-01-29T15:32:49.986Z,1.80
2019-01-29T15:35:19.802Z,1.40
2019-01-29T15:37:49.851Z,1.63
2019-01-29T15:40:19.771Z,2.63
2019-01-29T15:42:49.870Z,1.40
2019-01-29T15:45:20.006Z,1.70
2019-01-29T15:47:49.804Z,2.10
2019-01-29T15:50:20.875Z,2.90
2019-01-29T15:52:50.719Z,3.43
2019-01-29T15:55:20.950Z,2.57
2019-01-29T15:57:50.811Z,2.30
2019-01-29T16:00:23.426Z,2.03
2019-01-29T16:02:53.314Z,2.33
2019-01-29T16:05:25.046Z,2.67
2019-01-29T16:07:54.813Z,3.40
2019-01-29T16:10:27.539Z,3.30
2019-01-29T16:12:57.233Z,3.83
2019-01-29T16:15:27.402Z,3.47
2019-01-29T16:17:57.333Z,2.53
2019-01-29T16:20:27.202Z,2.70
2019-01-29T16:22:57.135Z,5.60
2019-01-29T16:25:27.437Z,2.43
2019-01-29T16:27:57.193Z,2.50
2019-01-29T16:30:28.087Z,3.80
2019-01-29T17:03:51.657Z,1.97
2019-01-29T17:06:21.351Z,3.60
2019-01-29T17:08:51.344Z,4.03
2019-01-29T17:11:21.278Z,4.90
2019-01-29T17:13:51.237Z,4.30
2019-01-29T17:16:20.902Z,4.90
2019-01-29T17:18:50.634Z,4.00
2019-01-29T17:21:20.560Z,4.63
2019-01-29T17:23:50.249Z,2.83
2019-01-29T17:26:20.492Z,4.30
2019-01-29T17:28:50.208Z,6.00
2019-01-29T17:31:20.203Z,4.80
2019-01-29T17:33:50.234Z,6.87
2019-01-29T17:36:20.339Z,9.93
2019-01-29T17:38:50.050Z,7.77
2019-01-29T17:41:20.226Z,7.47
2019-01-29T17:43:50.071Z,6.67
2019-01-29T17:46:19.745Z,13.30
2019-01-29T17:48:49.644Z,12.40
2019-01-29T17:51:19.687Z,9.13
2019-01-29T17:53:49.395Z,7.40
2019-01-29T17:56:19.155Z,8.40
2019-01-29T17:58:48.968Z,6.80
2019-01-29T18:01:18.976Z,9.60
2019-01-29T18:03:48.781Z,12.37
2019-01-29T18:06:18.704Z,8.70
2019-01-29T18:08:49.932Z,6.47
2019-01-29T18:11:21.699Z,8.27
2019-01-29T18:13:51.562Z,9.27
2019-01-29T18:16:22.014Z,9.93
2019-01-29T18:18:52.062Z,14.87
2019-01-29T18:21:22.162Z,12.00
2019-01-29T18:23:52.273Z,8.23
2019-01-29T18:26:22.061Z,5.20
2019-01-29T18:28:52.225Z,8.67
2019-01-29T18:31:21.922Z,5.97
2019-01-29T18:33:52.035Z,5.23
2019-01-29T18:36:21.777Z,5.10
2019-01-29T18:38:51.512Z,5.17
2019-01-29T18:41:21.349Z,10.37
2019-01-29T18:43:51.468Z,14.17
2019-01-29T18:46:21.414Z,6.27
2019-01-29T18:48:51.214Z,7.00
2019-01-29T18:51:21.497Z,7.63
2019-01-29T18:53:51.355Z,4.20
2019-01-29T18:56:21.190Z,4.93
2019-01-29T18:58:51.058Z,4.57
2019-01-29T19:01:21.170Z,4.20
2019-01-29T19:03:51.082Z,4.77
2019-01-29T19:06:21.131Z,4.97
2019-01-29T19:08:51.262Z,6.07
2019-01-29T19:11:20.933Z,5.13
2019-01-29T19:13:52.218Z,4.77
2019-01-29T19:16:21.899Z,4.93
2019-01-29T19:18:52.006Z,5.67
2019-01-29T19:21:21.802Z,5.57
2019-01-29T19:23:51.620Z,5.00
2019-01-29T19:26:21.410Z,5.50
2019-01-29T19:28:51.217Z,4.67
2019-01-29T19:31:20.909Z,5.70
2019-01-29T19:33:50.742Z,5.13
2019-01-29T19:36:20.538Z,5.57
2019-01-29T19:38:50.320Z,7.20
2019-01-29T19:41:20.005Z,5.90
2019-01-29T19:43:49.979Z,5.23
2019-01-29T19:46:19.875Z,5.73
2019-01-29T19:48:49.696Z,6.23
2019-01-29T19:51:19.461Z,6.70
2019-01-29T19:53:49.304Z,5.80
2019-01-29T19:56:19.069Z,4.77
2019-01-29T19:58:48.953Z,5.07
2019-01-29T20:01:18.805Z,5.00
2019-01-29T20:03:48.827Z,4.70
2019-01-29T20:06:19.217Z,4.77
2019-01-29T20:08:49.490Z,5.13
2019-01-29T20:11:19.622Z,5.07
2019-01-29T20:13:49.670Z,4.70
2019-01-29T20:16:22.482Z,4.53
2019-01-29T20:18:52.788Z,4.70
2019-01-29T20:21:22.759Z,5.00
2019-01-29T20:23:52.502Z,4.13
2019-01-29T20:26:22.416Z,4.53
2019-01-29T20:28:52.444Z,4.17
2019-01-29T20:31:22.249Z,4.50
2019-01-29T20:33:52.673Z,3.50
2019-01-29T20:36:22.429Z,3.80
2019-01-29T20:38:52.720Z,4.07
2019-01-29T20:41:23.083Z,3.93
2019-01-29T20:43:52.866Z,4.27
2019-01-29T20:53:43.537Z,8.33
2019-01-29T20:56:13.386Z,6.07
2019-01-29T20:58:52.546Z,7.50
2019-01-29T21:01:15.198Z,4.20
2019-01-29T21:03:45.105Z,4.00
2019-01-29T21:06:18.405Z,4.03
2019-01-29T21:08:50.015Z,3.43
2019-01-29T21:11:20.805Z,4.10
2019-01-29T21:13:50.890Z,3.40
2019-01-29T21:16:20.588Z,3.50
2019-01-29T21:18:50.295Z,3.47
2019-01-29T21:21:19.997Z,3.50
2019-01-29T21:23:49.786Z,3.77
2019-01-29T21:26:19.473Z,3.73
2019-01-29T21:28:49.295Z,3.90
2019-01-29T21:31:19.072Z,3.10
2019-01-29T21:33:48.848Z,3.37
2019-01-29T21:36:18.893Z,3.53
2019-01-29T21:38:49.694Z,3.37
2019-01-29T21:41:19.609Z,3.93
2019-01-29T21:43:52.714Z,3.30
2019-01-29T21:46:22.770Z,3.53
2019-01-29T21:48:53.632Z,4.20
2019-01-29T21:51:23.562Z,3.47
2019-01-29T21:53:53.672Z,4.27
2019-01-29T21:56:23.462Z,3.93
2019-01-29T21:58:53.247Z,4.17
2019-01-29T22:01:23.293Z,3.60
2019-01-29T22:03:53.006Z,4.03
2019-01-29T22:06:22.763Z,4.33
2019-01-29T22:08:52.659Z,3.90
2019-01-29T22:11:22.663Z,4.40
2019-01-29T22:13:52.380Z,4.40
2019-01-29T22:16:22.130Z,3.93
2019-01-29T22:18:52.363Z,4.53
2019-01-29T22:21:22.554Z,4.00
2019-01-29T22:23:52.350Z,4.03
2019-01-29T22:26:22.014Z,3.93
2019-01-29T22:28:52.049Z,4.73
2019-01-29T22:31:21.727Z,4.17
2019-01-29T22:33:51.678Z,4.17
2019-01-29T22:36:21.554Z,3.97
2019-01-29T22:38:51.546Z,3.67
2019-01-29T22:41:21.289Z,4.20
2019-01-29T22:43:51.044Z,4.07
2019-01-29T22:46:20.845Z,4.37
2019-01-29T22:48:52.016Z,4.33
2019-01-29T22:51:21.958Z,4.20
2019-01-29T22:53:52.007Z,4.40
2019-01-29T22:56:22.099Z,4.43
2019-01-29T22:58:51.935Z,4.10
2019-01-29T23:01:34.411Z,4.37
2019-01-29T23:04:22.452Z,4.43
2019-01-29T23:07:07.878Z,3.90
2019-01-29T23:09:38.312Z,4.20
2019-01-29T23:12:08.458Z,3.63
2019-01-29T23:14:40.643Z,4.50
2019-01-29T23:17:10.587Z,4.20
2019-01-29T23:19:41.126Z,4.10
2019-01-29T23:22:10.985Z,4.10
2019-01-29T23:24:41.593Z,3.97
2019-01-29T23:27:11.631Z,3.67
2019-01-29T23:29:43.732Z,4.10
2019-01-29T23:32:13.305Z,4.07
2019-01-29T23:34:43.062Z,4.10
2019-01-29T23:37:13.163Z,4.17
2019-01-29T23:39:42.911Z,4.00
2019-01-29T23:42:13.098Z,4.27
2019-01-29T23:44:42.888Z,4.03
2019-01-29T23:47:12.665Z,4.20
2019-01-29T23:49:43.127Z,3.40
2019-01-29T23:52:16.135Z,3.50
2019-01-29T23:54:54.915Z,3.77
2019-01-29T23:57:24.750Z,3.70
2019-01-29T23:59:54.711Z,3.60
